sensor_id;sensor_type;location;lat;lon;timestamp;temperature;humidity
8595;DHT22;4335;48.860;9.198;2022-10-18T00:01:51;15.20;99.90
8595;DHT22;4335;48.860;9.198;2022-10-18T00:04:20;15.10;99.90
8595;DHT22;4335;48.860;9.198;2022-10-18T00:06:48;15.10;99.90
8595;DHT22;4335;48.860;9.198;2022-10-18T00:09:15;15.10;99.90
8595;DHT22;4335;48.860;9.198;2022-10-18T00:11:42;15.10;99.90
8595;DHT22;4335;48.860;9.198;2022-10-18T00:14:10;15.10;99.90
8595;DHT22;4335;48.860;9.198;2022-10-18T00:16:37;15.00;99.90
8595;DHT22;4335;48.860;9.198;2022-10-18T00:19:05;15.00;99.90
8595;DHT22;4335;48.860;9.198;2022-10-18T00:21:33;15.00;99.90
8595;DHT22;4335;48.860;9.198;2022-10-18T00:24:01;15.00;99.90
8595;DHT22;4335;48.860;9.198;2022-10-18T00:26:29;15.00;99.90
8595;DHT22;4335;48.860;9.198;2022-10-18T00:28:58;15.00;99.90
8595;DHT22;4335;48.860;9.198;2022-10-18T00:31:28;14.90;99.90
8595;DHT22;4335;48.860;9.198;2022-10-18T00:33:58;14.90;99.90
8595;DHT22;4335;48.860;9.198;2022-10-18T00:36:27;14.90;99.90
8595;DHT22;4335;48.860;9.198;2022-10-18T00:38:57;14.90;99.90
8595;DHT22;4335;48.860;9.198;2022-10-18T00:41:27;15.00;99.90
8595;DHT22;4335;48.860;9.198;2022-10-18T00:43:59;14.90;99.90
8595;DHT22;4335;48.860;9.198;2022-10-18T00:46:28;14.90;99.90
8595;DHT22;4335;48.860;9.198;2022-10-18T00:48:58;14.90;99.90
8595;DHT22;4335;48.860;9.198;2022-10-18T00:51:29;14.80;99.90
8595;DHT22;4335;48.860;9.198;2022-10-18T00:53:58;14.80;99.90
8595;DHT22;4335;48.860;9.198;2022-10-18T00:56:28;14.80;99.90
8595;DHT22;4335;48.860;9.198;2022-10-18T00:58:56;14.80;99.90
8595;DHT22;4335;48.860;9.198;2022-10-18T01:01:30;14.90;99.90
8595;DHT22;4335;48.860;9.198;2022-10-18T01:03:57;14.90;99.90
8595;DHT22;4335;48.860;9.198;2022-10-18T01:06:26;14.90;99.90
8595;DHT22;4335;48.860;9.198;2022-10-18T01:09:12;14.90;99.90
8595;DHT22;4335;48.860;9.198;2022-10-18T01:11:54;14.90;99.90
8595;DHT22;4335;48.860;9.198;2022-10-18T01:14:36;14.90;99.90
8595;DHT22;4335;48.860;9.198;2022-10-18T01:17:10;14.90;99.90
8595;DHT22;4335;48.860;9.198;2022-10-18T01:20:06;15.00;99.90
8595;DHT22;4335;48.860;9.198;2022-10-18T01:22:43;15.00;99.90
8595;DHT22;4335;48.860;9.198;2022-10-18T01:25:38;15.00;99.90
8595;DHT22;4335;48.860;9.198;2022-10-18T01:28:19;15.00;99.90
8595;DHT22;4335;48.860;9.198;2022-10-18T01:30:56;15.00;99.90
8595;DHT22;4335;48.860;9.198;2022-10-18T01:33:32;15.00;99.90
8595;DHT22;4335;48.860;9.198;2022-10-18T01:36:03;15.10;99.90
8595;DHT22;4335;48.860;9.198;2022-10-18T01:38:32;15.10;99.90
8595;DHT22;4335;48.860;9.198;2022-10-18T01:41:02;15.10;99.90
8595;DHT22;4335;48.860;9.198;2022-10-18T01:43:35;15.10;99.90
8595;DHT22;4335;48.860;9.198;2022-10-18T01:46:07;15.20;99.90
8595;DHT22;4335;48.860;9.198;2022-10-18T01:48:35;15.20;99.90
8595;DHT22;4335;48.860;9.198;2022-10-18T01:51:04;15.20;99.90
8595;DHT22;4335;48.860;9.198;2022-10-18T01:53:37;15.20;99.90
8595;DHT22;4335;48.860;9.198;2022-10-18T01:56:24;15.20;99.90
8595;DHT22;4335;48.860;9.198;2022-10-18T01:59:09;15.20;99.90
8595;DHT22;4335;48.860;9.198;2022-10-18T02:01:47;15.20;99.90
8595;DHT22;4335;48.860;9.198;2022-10-18T02:04:23;15.20;99.90
8595;DHT22;4335;48.860;9.198;2022-10-18T02:07:02;15.20;99.90
8595;DHT22;4335;48.860;9.198;2022-10-18T02:09:47;15.20;99.90
8595;DHT22;4335;48.860;9.198;2022-10-18T02:12:17;15.20;99.90
8595;DHT22;4335;48.860;9.198;2022-10-18T02:14:46;15.20;99.90
8595;DHT22;4335;48.860;9.198;2022-10-18T02:17:17;15.20;99.90
8595;DHT22;4335;48.860;9.198;2022-10-18T02:19:48;15.20;99.90
8595;DHT22;4335;48.860;9.198;2022-10-18T02:22:19;15.20;99.90
8595;DHT22;4335;48.860;9.198;2022-10-18T02:24:57;15.10;99.90
8595;DHT22;4335;48.860;9.198;2022-10-18T02:27:26;15.10;99.90
8595;DHT22;4335;48.860;9.198;2022-10-18T02:29:53;15.10;99.90
8595;DHT22;4335;48.860;9.198;2022-10-18T02:32:30;15.10;99.90
8595;DHT22;4335;48.860;9.198;2022-10-18T02:35:01;15.20;99.90
8595;DHT22;4335;48.860;9.198;2022-10-18T02:37:35;15.20;99.90
8595;DHT22;4335;48.860;9.198;2022-10-18T02:40:08;15.10;99.90
8595;DHT22;4335;48.860;9.198;2022-10-18T02:42:43;15.20;99.90
8595;DHT22;4335;48.860;9.198;2022-10-18T02:45:12;15.20;99.90
8595;DHT22;4335;48.860;9.198;2022-10-18T02:47:44;15.20;99.90
8595;DHT22;4335;48.860;9.198;2022-10-18T02:50:14;15.20;99.90
8595;DHT22;4335;48.860;9.198;2022-10-18T02:52:42;15.20;99.90
8595;DHT22;4335;48.860;9.198;2022-10-18T02:55:09;15.20;99.90
8595;DHT22;4335;48.860;9.198;2022-10-18T02:57:39;15.20;99.90
8595;DHT22;4335;48.860;9.198;2022-10-18T03:00:10;15.30;99.90
8595;DHT22;4335;48.860;9.198;2022-10-18T03:02:45;15.30;99.90
8595;DHT22;4335;48.860;9.198;2022-10-18T03:05:14;15.30;99.90
8595;DHT22;4335;48.860;9.198;2022-10-18T03:07:41;15.20;99.90
8595;DHT22;4335;48.860;9.198;2022-10-18T03:10:09;15.30;99.90
8595;DHT22;4335;48.860;9.198;2022-10-18T03:12:36;15.30;99.90
8595;DHT22;4335;48.860;9.198;2022-10-18T03:15:06;15.20;99.90
8595;DHT22;4335;48.860;9.198;2022-10-18T03:17:34;15.20;99.90
8595;DHT22;4335;48.860;9.198;2022-10-18T03:20:03;15.30;99.90
8595;DHT22;4335;48.860;9.198;2022-10-18T03:22:30;15.30;99.90
8595;DHT22;4335;48.860;9.198;2022-10-18T03:24:58;15.20;99.90
8595;DHT22;4335;48.860;9.198;2022-10-18T03:27:25;15.20;99.90
8595;DHT22;4335;48.860;9.198;2022-10-18T03:29:52;15.20;99.90
8595;DHT22;4335;48.860;9.198;2022-10-18T03:32:20;15.10;99.90
8595;DHT22;4335;48.860;9.198;2022-10-18T03:34:53;15.10;99.90
8595;DHT22;4335;48.860;9.198;2022-10-18T03:37:22;15.10;99.90
8595;DHT22;4335;48.860;9.198;2022-10-18T03:39:49;15.10;99.90
8595;DHT22;4335;48.860;9.198;2022-10-18T03:42:17;15.10;99.90
8595;DHT22;4335;48.860;9.198;2022-10-18T03:44:44;15.10;99.90
8595;DHT22;4335;48.860;9.198;2022-10-18T03:47:15;15.10;99.90
8595;DHT22;4335;48.860;9.198;2022-10-18T03:49:42;15.10;99.90
8595;DHT22;4335;48.860;9.198;2022-10-18T03:52:09;15.10;99.90
8595;DHT22;4335;48.860;9.198;2022-10-18T03:54:38;15.10;99.90
8595;DHT22;4335;48.860;9.198;2022-10-18T03:57:06;15.10;99.90
8595;DHT22;4335;48.860;9.198;2022-10-18T03:59:39;15.10;99.90
8595;DHT22;4335;48.860;9.198;2022-10-18T04:02:07;15.00;99.90
8595;DHT22;4335;48.860;9.198;2022-10-18T04:04:37;15.00;99.90
8595;DHT22;4335;48.860;9.198;2022-10-18T04:07:07;15.00;99.90
8595;DHT22;4335;48.860;9.198;2022-10-18T04:09:35;14.90;99.90
8595;DHT22;4335;48.860;9.198;2022-10-18T04:12:07;15.00;99.90
8595;DHT22;4335;48.860;9.198;2022-10-18T04:14:34;14.90;99.90
8595;DHT22;4335;48.860;9.198;2022-10-18T04:17:01;14.90;99.90
8595;DHT22;4335;48.860;9.198;2022-10-18T04:19:29;14.90;99.90
8595;DHT22;4335;48.860;9.198;2022-10-18T04:21:57;14.90;99.90
8595;DHT22;4335;48.860;9.198;2022-10-18T04:24:24;14.90;99.90
8595;DHT22;4335;48.860;9.198;2022-10-18T04:26:51;14.90;99.90
8595;DHT22;4335;48.860;9.198;2022-10-18T04:29:26;15.00;99.90
8595;DHT22;4335;48.860;9.198;2022-10-18T04:32:00;15.00;99.90
8595;DHT22;4335;48.860;9.198;2022-10-18T04:34:27;15.00;99.90
8595;DHT22;4335;48.860;9.198;2022-10-18T04:36:55;15.10;99.90
8595;DHT22;4335;48.860;9.198;2022-10-18T04:39:25;15.00;99.90
8595;DHT22;4335;48.860;9.198;2022-10-18T04:41:55;15.10;99.90
8595;DHT22;4335;48.860;9.198;2022-10-18T04:44:23;15.10;99.90
8595;DHT22;4335;48.860;9.198;2022-10-18T04:46:51;15.00;99.90
8595;DHT22;4335;48.860;9.198;2022-10-18T04:49:19;15.00;99.90
8595;DHT22;4335;48.860;9.198;2022-10-18T04:51:46;14.90;99.90
8595;DHT22;4335;48.860;9.198;2022-10-18T04:54:14;14.90;99.90
8595;DHT22;4335;48.860;9.198;2022-10-18T04:56:41;14.90;99.90
8595;DHT22;4335;48.860;9.198;2022-10-18T04:59:09;14.90;99.90
8595;DHT22;4335;48.860;9.198;2022-10-18T05:01:36;14.90;99.90
8595;DHT22;4335;48.860;9.198;2022-10-18T05:04:05;14.90;99.90
8595;DHT22;4335;48.860;9.198;2022-10-18T05:06:32;14.90;99.90
8595;DHT22;4335;48.860;9.198;2022-10-18T05:09:00;14.90;99.90
8595;DHT22;4335;48.860;9.198;2022-10-18T05:11:30;14.90;99.90
8595;DHT22;4335;48.860;9.198;2022-10-18T05:14:04;14.90;99.90
8595;DHT22;4335;48.860;9.198;2022-10-18T05:16:31;14.90;99.90
8595;DHT22;4335;48.860;9.198;2022-10-18T05:18:58;14.90;99.90
8595;DHT22;4335;48.860;9.198;2022-10-18T05:21:31;14.90;99.90
8595;DHT22;4335;48.860;9.198;2022-10-18T05:23:58;14.90;99.90
8595;DHT22;4335;48.860;9.198;2022-10-18T05:26:26;14.90;99.90
8595;DHT22;4335;48.860;9.198;2022-10-18T05:28:53;14.90;99.90
8595;DHT22;4335;48.860;9.198;2022-10-18T05:31:20;15.00;99.90
8595;DHT22;4335;48.860;9.198;2022-10-18T05:33:48;15.00;99.90
8595;DHT22;4335;48.860;9.198;2022-10-18T05:36:17;15.00;99.90
8595;DHT22;4335;48.860;9.198;2022-10-18T05:38:46;15.10;99.90
8595;DHT22;4335;48.860;9.198;2022-10-18T05:41:13;15.00;99.90
8595;DHT22;4335;48.860;9.198;2022-10-18T05:43:41;14.90;99.90
8595;DHT22;4335;48.860;9.198;2022-10-18T05:46:09;14.90;99.90
8595;DHT22;4335;48.860;9.198;2022-10-18T05:48:37;14.90;99.90
8595;DHT22;4335;48.860;9.198;2022-10-18T05:51:05;14.90;99.90
8595;DHT22;4335;48.860;9.198;2022-10-18T05:53:32;14.90;99.90
8595;DHT22;4335;48.860;9.198;2022-10-18T05:56:05;14.90;99.90
8595;DHT22;4335;48.860;9.198;2022-10-18T05:58:32;14.80;99.90
8595;DHT22;4335;48.860;9.198;2022-10-18T06:01:03;14.80;99.90
8595;DHT22;4335;48.860;9.198;2022-10-18T06:03:31;14.80;99.90
8595;DHT22;4335;48.860;9.198;2022-10-18T06:06:04;14.80;99.90
8595;DHT22;4335;48.860;9.198;2022-10-18T06:08:31;14.90;99.90
8595;DHT22;4335;48.860;9.198;2022-10-18T06:10:59;14.90;99.90
8595;DHT22;4335;48.860;9.198;2022-10-18T06:13:33;14.90;99.90
8595;DHT22;4335;48.860;9.198;2022-10-18T06:16:00;14.90;99.90
8595;DHT22;4335;48.860;9.198;2022-10-18T06:18:30;15.00;99.90
8595;DHT22;4335;48.860;9.198;2022-10-18T06:20:58;15.00;99.90
8595;DHT22;4335;48.860;9.198;2022-10-18T06:23:25;15.10;99.90
8595;DHT22;4335;48.860;9.198;2022-10-18T06:25:58;15.10;99.90
8595;DHT22;4335;48.860;9.198;2022-10-18T06:28:33;15.20;99.90
8595;DHT22;4335;48.860;9.198;2022-10-18T06:31:01;15.30;99.90
8595;DHT22;4335;48.860;9.198;2022-10-18T06:33:30;15.40;99.90
8595;DHT22;4335;48.860;9.198;2022-10-18T06:36:00;15.50;99.90
8595;DHT22;4335;48.860;9.198;2022-10-18T06:38:28;15.60;99.90
8595;DHT22;4335;48.860;9.198;2022-10-18T06:40:56;15.70;99.90
8595;DHT22;4335;48.860;9.198;2022-10-18T06:43:24;15.80;99.90
8595;DHT22;4335;48.860;9.198;2022-10-18T06:45:53;15.90;99.90
8595;DHT22;4335;48.860;9.198;2022-10-18T06:48:24;16.00;99.90
8595;DHT22;4335;48.860;9.198;2022-10-18T06:50:52;16.10;99.90
8595;DHT22;4335;48.860;9.198;2022-10-18T06:53:21;16.10;99.90
8595;DHT22;4335;48.860;9.198;2022-10-18T06:55:52;16.10;99.90
8595;DHT22;4335;48.860;9.198;2022-10-18T06:58:24;16.10;99.90
8595;DHT22;4335;48.860;9.198;2022-10-18T07:00:53;16.10;99.90
8595;DHT22;4335;48.860;9.198;2022-10-18T07:03:24;16.10;99.90
8595;DHT22;4335;48.860;9.198;2022-10-18T07:05:52;16.20;99.90
8595;DHT22;4335;48.860;9.198;2022-10-18T07:08:22;16.20;99.90
8595;DHT22;4335;48.860;9.198;2022-10-18T07:10:52;16.20;99.90
8595;DHT22;4335;48.860;9.198;2022-10-18T07:13:19;16.30;99.90
8595;DHT22;4335;48.860;9.198;2022-10-18T07:15:47;16.40;99.90
8595;DHT22;4335;48.860;9.198;2022-10-18T07:18:16;16.40;99.90
8595;DHT22;4335;48.860;9.198;2022-10-18T07:20:43;16.50;99.90
8595;DHT22;4335;48.860;9.198;2022-10-18T07:23:10;16.50;99.90
8595;DHT22;4335;48.860;9.198;2022-10-18T07:25:38;16.50;99.90
8595;DHT22;4335;48.860;9.198;2022-10-18T07:28:11;16.60;99.90
8595;DHT22;4335;48.860;9.198;2022-10-18T07:30:42;16.60;99.90
8595;DHT22;4335;48.860;9.198;2022-10-18T07:33:09;16.60;99.90
8595;DHT22;4335;48.860;9.198;2022-10-18T07:35:41;16.70;99.90
8595;DHT22;4335;48.860;9.198;2022-10-18T07:38:09;16.70;99.90
8595;DHT22;4335;48.860;9.198;2022-10-18T07:40:40;16.80;99.90
8595;DHT22;4335;48.860;9.198;2022-10-18T07:43:07;16.90;99.90
8595;DHT22;4335;48.860;9.198;2022-10-18T07:45:35;16.90;99.90
8595;DHT22;4335;48.860;9.198;2022-10-18T07:48:02;17.00;99.90
8595;DHT22;4335;48.860;9.198;2022-10-18T07:50:30;17.00;99.90
8595;DHT22;4335;48.860;9.198;2022-10-18T07:52:58;17.10;99.90
8595;DHT22;4335;48.860;9.198;2022-10-18T07:55:26;17.20;99.90
8595;DHT22;4335;48.860;9.198;2022-10-18T07:57:59;17.40;99.90
8595;DHT22;4335;48.860;9.198;2022-10-18T08:00:33;17.60;99.90
8595;DHT22;4335;48.860;9.198;2022-10-18T08:03:00;17.70;99.90
8595;DHT22;4335;48.860;9.198;2022-10-18T08:05:28;17.90;99.90
8595;DHT22;4335;48.860;9.198;2022-10-18T08:07:59;18.00;99.90
8595;DHT22;4335;48.860;9.198;2022-10-18T08:10:27;18.20;99.90
8595;DHT22;4335;48.860;9.198;2022-10-18T08:12:54;18.30;99.90
8595;DHT22;4335;48.860;9.198;2022-10-18T08:15:22;18.40;99.90
8595;DHT22;4335;48.860;9.198;2022-10-18T08:17:50;18.50;99.90
8595;DHT22;4335;48.860;9.198;2022-10-18T08:20:18;18.50;99.90
8595;DHT22;4335;48.860;9.198;2022-10-18T08:22:49;18.50;99.90
8595;DHT22;4335;48.860;9.198;2022-10-18T08:25:18;18.70;99.90
8595;DHT22;4335;48.860;9.198;2022-10-18T08:27:46;18.70;99.90
8595;DHT22;4335;48.860;9.198;2022-10-18T08:30:13;18.70;99.90
8595;DHT22;4335;48.860;9.198;2022-10-18T08:32:44;18.80;99.90
8595;DHT22;4335;48.860;9.198;2022-10-18T08:35:14;18.80;99.90
8595;DHT22;4335;48.860;9.198;2022-10-18T08:37:41;18.80;99.90
8595;DHT22;4335;48.860;9.198;2022-10-18T08:40:12;18.80;99.90
8595;DHT22;4335;48.860;9.198;2022-10-18T08:42:55;18.80;99.90
8595;DHT22;4335;48.860;9.198;2022-10-18T08:45:24;18.80;99.90
8595;DHT22;4335;48.860;9.198;2022-10-18T08:47:56;18.90;99.90
8595;DHT22;4335;48.860;9.198;2022-10-18T08:50:28;19.00;99.90
8595;DHT22;4335;48.860;9.198;2022-10-18T08:53:04;19.20;99.90
8595;DHT22;4335;48.860;9.198;2022-10-18T08:55:38;19.40;99.90
8595;DHT22;4335;48.860;9.198;2022-10-18T08:58:14;19.60;99.90
8595;DHT22;4335;48.860;9.198;2022-10-18T09:00:49;19.70;99.90
8595;DHT22;4335;48.860;9.198;2022-10-18T09:03:28;19.80;99.90
8595;DHT22;4335;48.860;9.198;2022-10-18T09:06:10;20.00;99.90
8595;DHT22;4335;48.860;9.198;2022-10-18T09:08:48;20.00;99.90
8595;DHT22;4335;48.860;9.198;2022-10-18T09:11:31;20.10;99.90
8595;DHT22;4335;48.860;9.198;2022-10-18T09:14:43;20.10;99.90
8595;DHT22;4335;48.860;9.198;2022-10-18T09:17:24;20.30;99.90
8595;DHT22;4335;48.860;9.198;2022-10-18T09:20:08;20.40;99.90
8595;DHT22;4335;48.860;9.198;2022-10-18T09:22:53;20.40;99.90
8595;DHT22;4335;48.860;9.198;2022-10-18T09:25:22;20.40;99.90
8595;DHT22;4335;48.860;9.198;2022-10-18T09:27:53;20.50;99.90
8595;DHT22;4335;48.860;9.198;2022-10-18T09:30:38;20.60;99.90
8595;DHT22;4335;48.860;9.198;2022-10-18T09:33:26;20.70;99.90
8595;DHT22;4335;48.860;9.198;2022-10-18T09:35:57;20.60;99.90
8595;DHT22;4335;48.860;9.198;2022-10-18T09:38:31;20.60;99.90
8595;DHT22;4335;48.860;9.198;2022-10-18T09:41:01;20.70;99.90
8595;DHT22;4335;48.860;9.198;2022-10-18T09:43:38;20.70;99.90
8595;DHT22;4335;48.860;9.198;2022-10-18T09:46:14;20.80;99.90
8595;DHT22;4335;48.860;9.198;2022-10-18T09:48:45;20.90;99.90
8595;DHT22;4335;48.860;9.198;2022-10-18T09:51:18;20.90;99.90
8595;DHT22;4335;48.860;9.198;2022-10-18T09:54:03;21.00;99.90
8595;DHT22;4335;48.860;9.198;2022-10-18T09:56:37;21.30;99.90
8595;DHT22;4335;48.860;9.198;2022-10-18T09:59:13;21.60;99.90
8595;DHT22;4335;48.860;9.198;2022-10-18T10:01:47;21.90;99.90
8595;DHT22;4335;48.860;9.198;2022-10-18T10:04:15;23.50;99.90
8595;DHT22;4335;48.860;9.198;2022-10-18T10:06:49;25.80;99.90
8595;DHT22;4335;48.860;9.198;2022-10-18T10:09:20;27.90;99.90
8595;DHT22;4335;48.860;9.198;2022-10-18T10:12:25;29.60;99.90
8595;DHT22;4335;48.860;9.198;2022-10-18T10:15:07;31.50;99.90
8595;DHT22;4335;48.860;9.198;2022-10-18T10:17:37;32.20;98.20
8595;DHT22;4335;48.860;9.198;2022-10-18T10:20:14;32.80;94.50
8595;DHT22;4335;48.860;9.198;2022-10-18T10:22:47;32.90;93.40
8595;DHT22;4335;48.860;9.198;2022-10-18T10:25:21;32.50;93.60
8595;DHT22;4335;48.860;9.198;2022-10-18T10:27:49;33.60;92.90
8595;DHT22;4335;48.860;9.198;2022-10-18T10:30:27;34.70;90.70
8595;DHT22;4335;48.860;9.198;2022-10-18T10:32:56;36.10;85.50
8595;DHT22;4335;48.860;9.198;2022-10-18T10:35:29;36.70;79.60
8595;DHT22;4335;48.860;9.198;2022-10-18T10:37:57;36.70;75.20
8595;DHT22;4335;48.860;9.198;2022-10-18T10:40:25;37.40;72.30
8595;DHT22;4335;48.860;9.198;2022-10-18T10:43:14;37.60;69.80
8595;DHT22;4335;48.860;9.198;2022-10-18T10:45:57;38.20;68.60
8595;DHT22;4335;48.860;9.198;2022-10-18T10:48:38;37.70;67.30
8595;DHT22;4335;48.860;9.198;2022-10-18T10:51:08;37.10;67.20
8595;DHT22;4335;48.860;9.198;2022-10-18T10:53:46;35.90;68.10
8595;DHT22;4335;48.860;9.198;2022-10-18T10:56:24;34.90;70.50
8595;DHT22;4335;48.860;9.198;2022-10-18T10:58:56;34.00;72.40
8595;DHT22;4335;48.860;9.198;2022-10-18T11:01:29;33.50;73.70
8595;DHT22;4335;48.860;9.198;2022-10-18T11:04:00;32.60;75.70
8595;DHT22;4335;48.860;9.198;2022-10-18T11:06:43;30.90;80.10
8595;DHT22;4335;48.860;9.198;2022-10-18T11:09:50;29.90;85.30
8595;DHT22;4335;48.860;9.198;2022-10-18T11:12:29;28.70;90.70
8595;DHT22;4335;48.860;9.198;2022-10-18T11:15:10;27.60;94.10
8595;DHT22;4335;48.860;9.198;2022-10-18T11:17:47;26.80;97.80
8595;DHT22;4335;48.860;9.198;2022-10-18T11:20:31;26.10;99.90
8595;DHT22;4335;48.860;9.198;2022-10-18T11:23:06;25.50;99.90
8595;DHT22;4335;48.860;9.198;2022-10-18T11:25:51;24.90;99.90
8595;DHT22;4335;48.860;9.198;2022-10-18T11:28:36;24.60;99.90
8595;DHT22;4335;48.860;9.198;2022-10-18T11:31:13;24.10;99.90
8595;DHT22;4335;48.860;9.198;2022-10-18T11:33:51;23.60;99.90
8595;DHT22;4335;48.860;9.198;2022-10-18T11:36:28;23.20;99.90
8595;DHT22;4335;48.860;9.198;2022-10-18T11:39:09;23.00;99.90
8595;DHT22;4335;48.860;9.198;2022-10-18T11:41:48;23.10;99.90
8595;DHT22;4335;48.860;9.198;2022-10-18T11:44:24;22.80;99.90
8595;DHT22;4335;48.860;9.198;2022-10-18T11:47:00;22.60;99.90
8595;DHT22;4335;48.860;9.198;2022-10-18T11:49:44;22.50;99.90
8595;DHT22;4335;48.860;9.198;2022-10-18T11:52:21;22.50;99.90
8595;DHT22;4335;48.860;9.198;2022-10-18T11:55:22;22.20;99.90
8595;DHT22;4335;48.860;9.198;2022-10-18T11:58:04;22.00;99.90
8595;DHT22;4335;48.860;9.198;2022-10-18T12:00:44;21.90;99.90
8595;DHT22;4335;48.860;9.198;2022-10-18T12:03:28;21.60;99.90
8595;DHT22;4335;48.860;9.198;2022-10-18T12:06:02;21.50;99.90
8595;DHT22;4335;48.860;9.198;2022-10-18T12:08:37;21.40;99.90
8595;DHT22;4335;48.860;9.198;2022-10-18T12:11:11;21.30;99.90
8595;DHT22;4335;48.860;9.198;2022-10-18T12:13:46;21.20;99.90
8595;DHT22;4335;48.860;9.198;2022-10-18T12:16:15;21.10;99.90
8595;DHT22;4335;48.860;9.198;2022-10-18T12:18:53;21.10;99.90
8595;DHT22;4335;48.860;9.198;2022-10-18T12:21:31;21.00;99.90
8595;DHT22;4335;48.860;9.198;2022-10-18T12:24:03;21.00;99.90
8595;DHT22;4335;48.860;9.198;2022-10-18T12:26:33;21.10;99.90
8595;DHT22;4335;48.860;9.198;2022-10-18T12:29:14;21.00;99.90
8595;DHT22;4335;48.860;9.198;2022-10-18T12:31:46;21.00;99.90
8595;DHT22;4335;48.860;9.198;2022-10-18T12:34:29;21.00;99.90
8595;DHT22;4335;48.860;9.198;2022-10-18T12:37:13;21.00;99.90
8595;DHT22;4335;48.860;9.198;2022-10-18T12:39:47;20.90;99.90
8595;DHT22;4335;48.860;9.198;2022-10-18T12:42:20;20.90;99.90
8595;DHT22;4335;48.860;9.198;2022-10-18T12:44:49;20.90;99.90
8595;DHT22;4335;48.860;9.198;2022-10-18T12:47:27;20.90;99.90
8595;DHT22;4335;48.860;9.198;2022-10-18T12:49:57;20.90;99.90
8595;DHT22;4335;48.860;9.198;2022-10-18T12:52:27;20.90;99.90
8595;DHT22;4335;48.860;9.198;2022-10-18T12:55:12;20.90;99.90
8595;DHT22;4335;48.860;9.198;2022-10-18T12:58:09;20.90;99.90
8595;DHT22;4335;48.860;9.198;2022-10-18T13:00:58;20.80;99.90
8595;DHT22;4335;48.860;9.198;2022-10-18T13:03:49;20.70;99.90
8595;DHT22;4335;48.860;9.198;2022-10-18T13:06:23;20.70;99.90
8595;DHT22;4335;48.860;9.198;2022-10-18T13:09:19;20.70;99.90
8595;DHT22;4335;48.860;9.198;2022-10-18T13:11:48;20.70;99.90
8595;DHT22;4335;48.860;9.198;2022-10-18T13:17:23;20.60;99.90
8595;DHT22;4335;48.860;9.198;2022-10-18T13:19:58;20.70;99.90
8595;DHT22;4335;48.860;9.198;2022-10-18T13:22:43;20.80;99.90
8595;DHT22;4335;48.860;9.198;2022-10-18T13:25:24;20.80;99.90
8595;DHT22;4335;48.860;9.198;2022-10-18T13:28:00;20.80;99.90
8595;DHT22;4335;48.860;9.198;2022-10-18T13:30:44;20.80;99.90
8595;DHT22;4335;48.860;9.198;2022-10-18T13:33:30;20.80;99.90
8595;DHT22;4335;48.860;9.198;2022-10-18T13:36:00;20.80;99.90
8595;DHT22;4335;48.860;9.198;2022-10-18T13:38:43;20.70;99.90
8595;DHT22;4335;48.860;9.198;2022-10-18T13:41:17;20.70;99.90
8595;DHT22;4335;48.860;9.198;2022-10-18T13:44:26;20.70;99.90
8595;DHT22;4335;48.860;9.198;2022-10-18T13:47:34;20.70;99.90
8595;DHT22;4335;48.860;9.198;2022-10-18T13:50:25;20.70;99.90
8595;DHT22;4335;48.860;9.198;2022-10-18T13:53:35;20.70;99.90
8595;DHT22;4335;48.860;9.198;2022-10-18T13:56:25;20.60;99.90
8595;DHT22;4335;48.860;9.198;2022-10-18T13:59:27;20.60;99.90
8595;DHT22;4335;48.860;9.198;2022-10-18T14:02:20;20.60;99.90
8595;DHT22;4335;48.860;9.198;2022-10-18T14:05:04;20.50;99.90
8595;DHT22;4335;48.860;9.198;2022-10-18T14:07:35;20.50;99.90
8595;DHT22;4335;48.860;9.198;2022-10-18T14:10:04;20.40;99.90
8595;DHT22;4335;48.860;9.198;2022-10-18T14:12:39;20.40;99.90
8595;DHT22;4335;48.860;9.198;2022-10-18T14:15:15;20.40;99.90
8595;DHT22;4335;48.860;9.198;2022-10-18T14:17:46;20.40;99.90
8595;DHT22;4335;48.860;9.198;2022-10-18T14:20:21;20.50;99.90
8595;DHT22;4335;48.860;9.198;2022-10-18T14:22:56;20.50;99.90
8595;DHT22;4335;48.860;9.198;2022-10-18T14:25:29;20.50;99.90
8595;DHT22;4335;48.860;9.198;2022-10-18T14:28:10;20.40;99.90
8595;DHT22;4335;48.860;9.198;2022-10-18T14:30:50;20.40;99.90
8595;DHT22;4335;48.860;9.198;2022-10-18T14:33:27;20.30;99.90
8595;DHT22;4335;48.860;9.198;2022-10-18T14:36:08;20.30;99.90
8595;DHT22;4335;48.860;9.198;2022-10-18T14:38:46;20.30;99.90
8595;DHT22;4335;48.860;9.198;2022-10-18T14:41:16;20.30;99.90
8595;DHT22;4335;48.860;9.198;2022-10-18T14:43:46;20.20;99.90
8595;DHT22;4335;48.860;9.198;2022-10-18T14:46:21;20.20;99.90
8595;DHT22;4335;48.860;9.198;2022-10-18T14:48:53;20.20;99.90
8595;DHT22;4335;48.860;9.198;2022-10-18T14:51:20;20.20;99.90
8595;DHT22;4335;48.860;9.198;2022-10-18T14:53:48;20.10;99.90
8595;DHT22;4335;48.860;9.198;2022-10-18T14:56:23;20.10;99.90
8595;DHT22;4335;48.860;9.198;2022-10-18T14:58:55;20.00;99.90
8595;DHT22;4335;48.860;9.198;2022-10-18T15:01:29;20.00;99.90
8595;DHT22;4335;48.860;9.198;2022-10-18T15:04:00;19.90;99.90
8595;DHT22;4335;48.860;9.198;2022-10-18T15:06:28;19.90;99.90
8595;DHT22;4335;48.860;9.198;2022-10-18T15:09:00;19.90;99.90
8595;DHT22;4335;48.860;9.198;2022-10-18T15:11:33;19.90;99.90
8595;DHT22;4335;48.860;9.198;2022-10-18T15:14:02;19.90;99.90
8595;DHT22;4335;48.860;9.198;2022-10-18T15:16:33;19.90;99.90
8595;DHT22;4335;48.860;9.198;2022-10-18T15:19:04;19.90;99.90
8595;DHT22;4335;48.860;9.198;2022-10-18T15:21:33;19.80;99.90
8595;DHT22;4335;48.860;9.198;2022-10-18T15:24:26;19.80;99.90
8595;DHT22;4335;48.860;9.198;2022-10-18T15:26:57;19.80;99.90
8595;DHT22;4335;48.860;9.198;2022-10-18T15:29:26;19.70;99.90
8595;DHT22;4335;48.860;9.198;2022-10-18T15:32:05;19.80;99.90
8595;DHT22;4335;48.860;9.198;2022-10-18T15:34:37;19.70;99.90
8595;DHT22;4335;48.860;9.198;2022-10-18T15:37:15;19.70;99.90
8595;DHT22;4335;48.860;9.198;2022-10-18T15:39:47;19.60;99.90
8595;DHT22;4335;48.860;9.198;2022-10-18T15:42:36;19.60;99.90
8595;DHT22;4335;48.860;9.198;2022-10-18T15:45:32;19.60;99.90
8595;DHT22;4335;48.860;9.198;2022-10-18T15:48:21;19.60;99.90
8595;DHT22;4335;48.860;9.198;2022-10-18T15:50:53;19.60;99.90
8595;DHT22;4335;48.860;9.198;2022-10-18T15:56:34;19.60;99.90
8595;DHT22;4335;48.860;9.198;2022-10-18T15:59:03;19.50;99.90
8595;DHT22;4335;48.860;9.198;2022-10-18T16:01:35;19.50;99.90
8595;DHT22;4335;48.860;9.198;2022-10-18T16:04:15;19.40;99.90
8595;DHT22;4335;48.860;9.198;2022-10-18T16:06:44;19.40;99.90
8595;DHT22;4335;48.860;9.198;2022-10-18T16:09:18;19.40;99.90
8595;DHT22;4335;48.860;9.198;2022-10-18T16:11:46;19.40;99.90
8595;DHT22;4335;48.860;9.198;2022-10-18T16:14:15;19.30;99.90
8595;DHT22;4335;48.860;9.198;2022-10-18T16:16:42;19.30;99.90
8595;DHT22;4335;48.860;9.198;2022-10-18T16:19:13;19.30;99.90
8595;DHT22;4335;48.860;9.198;2022-10-18T16:21:43;19.20;99.90
8595;DHT22;4335;48.860;9.198;2022-10-18T16:24:14;19.20;99.90
8595;DHT22;4335;48.860;9.198;2022-10-18T16:26:45;19.20;99.90
8595;DHT22;4335;48.860;9.198;2022-10-18T16:29:14;19.20;99.90
8595;DHT22;4335;48.860;9.198;2022-10-18T16:31:46;19.20;99.90
8595;DHT22;4335;48.860;9.198;2022-10-18T16:34:19;19.10;99.90
8595;DHT22;4335;48.860;9.198;2022-10-18T16:36:46;19.10;99.90
8595;DHT22;4335;48.860;9.198;2022-10-18T16:39:15;19.10;99.90
8595;DHT22;4335;48.860;9.198;2022-10-18T16:41:43;19.10;99.90
8595;DHT22;4335;48.860;9.198;2022-10-18T16:44:11;19.10;99.90
8595;DHT22;4335;48.860;9.198;2022-10-18T16:46:39;19.00;99.90
8595;DHT22;4335;48.860;9.198;2022-10-18T16:49:09;19.00;99.90